Time;durP1;ratioP1;P1;durP2;ratioP2;P2;SDS_P1;SDS_P2;PMS_P1;PMS_P2;Temp;Humidity;BMP_temperature;BMP_pressure;BME280_temperature;BME280_humidity;BME280_pressure;Samples;Min_cycle;Max_cycle;Signal;HPM_P1;HPM_P2
2021/06/11 00:02:35;;;;;;;7.40;3.33;;;;;;;;;;5027445;28;20093;-76
2021/06/11 00:05:20;;;;;;;6.38;3.33;;;;;;;;;;5029742;28;20086;-76
2021/06/11 00:08:05;;;;;;;6.55;3.10;;;;;;;;;;5043023;28;20099;-76
2021/06/11 00:10:50;;;;;;;4.63;3.25;;;;;;;;;;5028894;28;20112;-76
2021/06/11 00:13:34;;;;;;;6.38;3.60;;;;;;;;;;5041676;28;20074;-76
2021/06/11 00:16:19;;;;;;;6.40;3.47;;;;;;;;;;5041513;28;20133;-76
2021/06/11 00:19:04;;;;;;;5.25;3.20;;;;;;;;;;5042155;28;20079;-76
2021/06/11 00:21:49;;;;;;;5.13;3.40;;;;;;;;;;5043415;28;20087;-78
2021/06/11 00:24:33;;;;;;;5.18;3.65;;;;;;;;;;5042738;28;20094;-76
2021/06/11 00:27:18;;;;;;;4.88;3.03;;;;;;;;;;5044450;28;20101;-76
2021/06/11 00:30:06;;;;;;;5.63;3.53;;;;;;;;;;5050382;28;20862;-77
2021/06/11 00:32:51;;;;;;;6.05;3.47;;;;;;;;;;5041888;28;20535;-76
2021/06/11 00:35:36;;;;;;;5.80;3.40;;;;;;;;;;5040958;28;20142;-76
2021/06/11 00:38:21;;;;;;;5.03;3.35;;;;;;;;;;5043709;28;20082;-76
2021/06/11 00:41:05;;;;;;;6.78;3.45;;;;;;;;;;5043731;28;20524;-78
2021/06/11 00:43:50;;;;;;;6.22;3.17;;;;;;;;;;5027134;28;20381;-76
2021/06/11 00:46:34;;;;;;;6.90;3.25;;;;;;;;;;5042310;28;20048;-76
2021/06/11 00:49:19;;;;;;;6.55;3.58;;;;;;;;;;5041855;28;20043;-76
2021/06/11 00:52:06;;;;;;;6.20;3.03;;;;;;;;;;5034791;28;20086;-76
2021/06/11 00:54:50;;;;;;;5.53;3.17;;;;;;;;;;5046027;28;20120;-76
2021/06/11 00:57:35;;;;;;;5.65;3.20;;;;;;;;;;5047187;28;20416;-75
2021/06/11 01:00:20;;;;;;;5.70;3.40;;;;;;;;;;5044631;28;20067;-75
2021/06/11 01:03:04;;;;;;;8.20;3.90;;;;;;;;;;5045217;28;20119;-75
2021/06/11 01:05:49;;;;;;;5.95;3.53;;;;;;;;;;5027130;28;20086;-76
2021/06/11 01:08:35;;;;;;;4.88;3.30;;;;;;;;;;5030565;28;20095;-75
2021/06/11 01:11:21;;;;;;;5.05;3.20;;;;;;;;;;5028976;28;20048;-76
2021/06/11 01:14:05;;;;;;;5.68;3.40;;;;;;;;;;5029991;28;20040;-76
2021/06/11 01:16:50;;;;;;;6.00;3.47;;;;;;;;;;5029273;28;20063;-75
2021/06/11 01:19:40;;;;;;;4.97;3.10;;;;;;;;;;5041370;28;20072;-75
2021/06/11 01:22:41;;;;;;;5.70;3.22;;;;;;;;;;5028379;28;20409;-75
2021/06/11 01:25:28;;;;;;;6.25;3.40;;;;;;;;;;5042674;28;20048;-75
2021/06/11 01:28:13;;;;;;;5.10;3.13;;;;;;;;;;5027558;28;20079;-75
2021/06/11 01:30:57;;;;;;;5.75;3.05;;;;;;;;;;5029723;28;20056;-75
2021/06/11 01:33:42;;;;;;;4.90;3.10;;;;;;;;;;5033579;28;20044;-75
2021/06/11 01:36:27;;;;;;;7.32;3.10;;;;;;;;;;5055292;28;20040;-75
2021/06/11 01:39:13;;;;;;;4.97;3.05;;;;;;;;;;5048870;28;20044;-75
2021/06/11 01:41:58;;;;;;;4.38;3.00;;;;;;;;;;5028130;28;20048;-75
2021/06/11 01:44:43;;;;;;;6.25;3.40;;;;;;;;;;5032941;28;20106;-78
2021/06/11 01:47:27;;;;;;;4.90;3.40;;;;;;;;;;5043286;28;20043;-75
2021/06/11 01:50:22;;;;;;;7.18;3.58;;;;;;;;;;5047611;28;20048;-76
2021/06/11 01:53:06;;;;;;;6.07;3.50;;;;;;;;;;5043505;28;20400;-76
2021/06/11 01:55:51;;;;;;;7.30;3.80;;;;;;;;;;5042908;28;20035;-75
2021/06/11 01:58:36;;;;;;;6.28;3.42;;;;;;;;;;5024671;28;20093;-74
2021/06/11 02:01:21;;;;;;;7.70;3.38;;;;;;;;;;5045657;28;20067;-75
2021/06/11 02:04:05;;;;;;;6.65;3.50;;;;;;;;;;5034705;28;20043;-75
2021/06/11 02:06:50;;;;;;;6.47;3.80;;;;;;;;;;5033518;28;20091;-75
2021/06/11 02:09:35;;;;;;;6.25;3.70;;;;;;;;;;5035157;28;20048;-75
2021/06/11 02:12:20;;;;;;;7.05;3.53;;;;;;;;;;5021255;28;20531;-75
2021/06/11 02:15:04;;;;;;;4.75;3.00;;;;;;;;;;5026899;28;20071;-75
2021/06/11 02:17:50;;;;;;;6.50;3.45;;;;;;;;;;5036402;28;20043;-75
2021/06/11 02:20:34;;;;;;;5.90;3.42;;;;;;;;;;5048537;28;20148;-75
2021/06/11 02:23:19;;;;;;;6.97;3.53;;;;;;;;;;5032547;28;20687;-75
2021/06/11 02:26:04;;;;;;;5.50;2.88;;;;;;;;;;5033173;28;20068;-75
2021/06/11 02:28:50;;;;;;;6.15;3.35;;;;;;;;;;5033664;28;20186;-75
2021/06/11 02:31:35;;;;;;;5.75;3.50;;;;;;;;;;5040128;28;20051;-75
2021/06/11 02:34:19;;;;;;;5.30;3.05;;;;;;;;;;5051909;28;20128;-75
2021/06/11 02:37:04;;;;;;;5.22;2.80;;;;;;;;;;5035259;28;20994;-75
2021/06/11 02:39:49;;;;;;;5.25;3.30;;;;;;;;;;5022589;28;20104;-75
2021/06/11 02:42:33;;;;;;;7.50;3.88;;;;;;;;;;5052390;28;20036;-75
2021/06/11 02:45:19;;;;;;;5.35;3.40;;;;;;;;;;5032622;28;20071;-75
2021/06/11 02:48:06;;;;;;;5.97;3.35;;;;;;;;;;5046678;28;20095;-75
2021/06/11 02:51:04;;;;;;;5.93;3.08;;;;;;;;;;5048245;28;20047;-75
2021/06/11 02:53:49;;;;;;;6.60;3.05;;;;;;;;;;5030353;28;20441;-75
2021/06/11 02:56:43;;;;;;;6.30;3.10;;;;;;;;;;5047614;28;20513;-75
2021/06/11 02:59:30;;;;;;;5.70;3.38;;;;;;;;;;5061015;28;20134;-75
2021/06/11 03:02:22;;;;;;;6.50;3.40;;;;;;;;;;5048904;28;20043;-75
2021/06/11 03:05:08;;;;;;;5.20;3.50;;;;;;;;;;5026656;28;20064;-75
2021/06/11 03:07:55;;;;;;;6.75;3.30;;;;;;;;;;5046811;28;20637;-75
2021/06/11 03:10:45;;;;;;;8.23;3.40;;;;;;;;;;5033066;28;20048;-74
2021/06/11 03:13:29;;;;;;;6.28;3.40;;;;;;;;;;5029582;28;20044;-75
2021/06/11 03:16:14;;;;;;;8.15;3.85;;;;;;;;;;5046956;28;20099;-75
2021/06/11 03:18:59;;;;;;;7.38;3.63;;;;;;;;;;5047283;28;20813;-75
2021/06/11 03:21:51;;;;;;;5.70;3.53;;;;;;;;;;5047924;28;20048;-75
2021/06/11 03:24:39;;;;;;;5.65;3.28;;;;;;;;;;5052324;28;20105;-75
2021/06/11 03:27:32;;;;;;;7.13;3.53;;;;;;;;;;5047527;28;20052;-75
2021/06/11 03:30:17;;;;;;;8.63;3.80;;;;;;;;;;5047429;28;20594;-75
2021/06/11 03:33:09;;;;;;;5.88;3.22;;;;;;;;;;5052203;28;20080;-75
2021/06/11 03:36:21;;;;;;;6.72;3.47;;;;;;;;;;5059080;28;20043;-75
2021/06/11 03:39:06;;;;;;;6.17;3.30;;;;;;;;;;5044899;28;20048;-75
2021/06/11 03:41:51;;;;;;;7.80;3.80;;;;;;;;;;5065918;28;20276;-75
2021/06/11 03:44:36;;;;;;;5.40;3.42;;;;;;;;;;5045538;28;20766;-75
2021/06/11 03:47:21;;;;;;;7.63;3.40;;;;;;;;;;5042060;28;20053;-75
2021/06/11 03:50:06;;;;;;;6.60;3.65;;;;;;;;;;5046095;28;20048;-75
2021/06/11 03:52:51;;;;;;;7.47;3.40;;;;;;;;;;5032641;28;20105;-75
2021/06/11 03:55:37;;;;;;;5.07;3.22;;;;;;;;;;5035708;28;20059;-75
2021/06/11 03:58:31;;;;;;;7.25;3.60;;;;;;;;;;5046677;28;20448;-75
2021/06/11 04:01:17;;;;;;;6.43;3.25;;;;;;;;;;5042213;28;20052;-75
2021/06/11 04:04:02;;;;;;;4.75;3.10;;;;;;;;;;5059297;28;20047;-75
2021/06/11 04:06:50;;;;;;;5.78;3.28;;;;;;;;;;5041318;28;20128;-75
2021/06/11 04:09:45;;;;;;;5.95;3.15;;;;;;;;;;5050883;28;20051;-75
2021/06/11 04:12:33;;;;;;;5.22;3.10;;;;;;;;;;5048625;28;20047;-75
2021/06/11 04:15:17;;;;;;;5.10;2.90;;;;;;;;;;5046734;28;20539;-75
2021/06/11 04:18:06;;;;;;;6.50;3.13;;;;;;;;;;5046160;28;20079;-75
2021/06/11 04:20:52;;;;;;;5.60;3.40;;;;;;;;;;5028963;28;20036;-75
2021/06/11 04:23:37;;;;;;;5.63;3.08;;;;;;;;;;5035455;28;20063;-75
2021/06/11 04:26:22;;;;;;;4.25;2.92;;;;;;;;;;5042331;28;20044;-75
2021/06/11 04:29:07;;;;;;;4.88;3.20;;;;;;;;;;5043859;28;20512;-75
2021/06/11 04:31:52;;;;;;;5.25;2.90;;;;;;;;;;5045021;28;22344;-75
2021/06/11 04:34:37;;;;;;;5.72;3.10;;;;;;;;;;5055287;28;20743;-75
2021/06/11 04:37:21;;;;;;;5.35;2.90;;;;;;;;;;5030460;28;20043;-75
2021/06/11 04:40:06;;;;;;;5.53;3.25;;;;;;;;;;5030440;28;20570;-75
2021/06/11 04:42:51;;;;;;;5.50;3.30;;;;;;;;;;5031420;28;20097;-75
2021/06/11 04:45:36;;;;;;;3.90;2.72;;;;;;;;;;5059432;28;20097;-75
2021/06/11 04:48:20;;;;;;;4.50;2.92;;;;;;;;;;5042607;28;20027;-75
2021/06/11 04:51:05;;;;;;;4.10;2.65;;;;;;;;;;5031879;28;20135;-75
2021/06/11 04:53:49;;;;;;;5.85;3.30;;;;;;;;;;5043168;28;20039;-76
2021/06/11 04:56:34;;;;;;;5.97;2.80;;;;;;;;;;5042326;28;20501;-76
2021/06/11 04:59:18;;;;;;;4.47;2.90;;;;;;;;;;5023235;28;20513;-76
2021/06/11 05:02:03;;;;;;;4.22;2.60;;;;;;;;;;5032748;28;20090;-75
2021/06/11 05:04:48;;;;;;;5.10;2.80;;;;;;;;;;5029496;28;20485;-75
2021/06/11 05:07:32;;;;;;;5.05;2.72;;;;;;;;;;5017836;28;20048;-75
2021/06/11 05:10:17;;;;;;;3.85;2.55;;;;;;;;;;5059404;28;20044;-75
2021/06/11 05:13:01;;;;;;;3.05;2.53;;;;;;;;;;5041906;28;20547;-75
2021/06/11 05:15:46;;;;;;;3.45;2.67;;;;;;;;;;5052213;28;20420;-75
2021/06/11 05:18:31;;;;;;;4.93;2.60;;;;;;;;;;5046629;28;20090;-75
2021/06/11 05:21:16;;;;;;;3.45;2.40;;;;;;;;;;5041095;28;20044;-75
2021/06/11 05:24:00;;;;;;;2.70;2.15;;;;;;;;;;5041368;28;20078;-76
2021/06/11 05:26:45;;;;;;;3.72;2.50;;;;;;;;;;5027508;28;20480;-75
2021/06/11 05:29:29;;;;;;;4.43;2.28;;;;;;;;;;5040895;28;20784;-76
2021/06/11 05:32:14;;;;;;;3.47;2.70;;;;;;;;;;5041377;28;20048;-77
2021/06/11 05:34:58;;;;;;;2.92;2.50;;;;;;;;;;5050394;28;20043;-75
2021/06/11 05:37:43;;;;;;;3.38;2.30;;;;;;;;;;5053033;28;20083;-75
2021/06/11 05:40:28;;;;;;;3.58;2.00;;;;;;;;;;5043045;28;20138;-76
2021/06/11 05:43:13;;;;;;;3.47;2.10;;;;;;;;;;5040689;28;20059;-75
2021/06/11 05:45:58;;;;;;;2.95;1.95;;;;;;;;;;5049290;28;20093;-75
2021/06/11 05:48:43;;;;;;;3.88;1.90;;;;;;;;;;5051629;28;20528;-75
2021/06/11 05:51:28;;;;;;;3.40;2.45;;;;;;;;;;5026812;28;20067;-75
2021/06/11 05:54:12;;;;;;;3.38;2.05;;;;;;;;;;5049577;28;20048;-75
2021/06/11 05:56:57;;;;;;;4.13;1.92;;;;;;;;;;5048603;28;20884;-75
2021/06/11 05:59:42;;;;;;;5.72;2.28;;;;;;;;;;5043626;28;20268;-75
2021/06/11 06:02:26;;;;;;;3.55;2.20;;;;;;;;;;5049162;28;20448;-75
2021/06/11 06:05:11;;;;;;;4.03;2.30;;;;;;;;;;5031621;28;20094;-75
2021/06/11 06:07:56;;;;;;;4.70;2.05;;;;;;;;;;5037020;28;20043;-75
2021/06/11 06:10:41;;;;;;;2.80;2.10;;;;;;;;;;5031006;28;20528;-77
2021/06/11 06:13:25;;;;;;;3.25;2.00;;;;;;;;;;5045727;28;20058;-75
2021/06/11 06:16:10;;;;;;;3.20;2.10;;;;;;;;;;5031534;28;20040;-75
2021/06/11 06:18:54;;;;;;;6.25;2.22;;;;;;;;;;5045023;28;20395;-75
2021/06/11 06:21:39;;;;;;;3.70;2.30;;;;;;;;;;5046223;28;20938;-75
2021/06/11 06:24:24;;;;;;;3.70;2.00;;;;;;;;;;5045101;28;20127;-75
2021/06/11 06:27:09;;;;;;;3.03;1.92;;;;;;;;;;5031290;28;20402;-75
2021/06/11 06:29:53;;;;;;;2.28;1.90;;;;;;;;;;5045286;28;20040;-76
2021/06/11 06:32:38;;;;;;;3.47;2.05;;;;;;;;;;5030830;28;20094;-75
2021/06/11 06:35:23;;;;;;;6.15;2.05;;;;;;;;;;5030744;28;20090;-75
2021/06/11 06:38:10;;;;;;;2.63;1.70;;;;;;;;;;5044656;28;20124;-76
2021/06/11 06:41:01;;;;;;;3.25;1.92;;;;;;;;;;5031351;28;20060;-75
2021/06/11 06:43:47;;;;;;;3.70;1.67;;;;;;;;;;5031733;28;20118;-76
2021/06/11 06:46:33;;;;;;;2.75;1.90;;;;;;;;;;5044078;28;20044;-75
2021/06/11 06:49:18;;;;;;;2.70;1.70;;;;;;;;;;5044970;28;20035;-75
2021/06/11 06:52:02;;;;;;;3.15;1.90;;;;;;;;;;5044224;28;20052;-74
2021/06/11 06:54:47;;;;;;;2.40;1.95;;;;;;;;;;5031621;28;20086;-74
2021/06/11 06:57:32;;;;;;;2.33;2.03;;;;;;;;;;5014425;28;20090;-74
2021/06/11 07:00:17;;;;;;;4.30;2.00;;;;;;;;;;5044285;28;20044;-75
2021/06/11 07:03:01;;;;;;;2.97;1.70;;;;;;;;;;5035981;28;20044;-74
2021/06/11 07:05:46;;;;;;;3.20;2.00;;;;;;;;;;5055296;28;20047;-75
2021/06/11 07:08:31;;;;;;;2.95;1.90;;;;;;;;;;5044729;28;20039;-75
2021/06/11 07:11:16;;;;;;;2.80;1.90;;;;;;;;;;5044029;28;20040;-74
2021/06/11 07:14:01;;;;;;;2.20;1.77;;;;;;;;;;5028040;28;21056;-76
2021/06/11 07:16:45;;;;;;;3.47;1.90;;;;;;;;;;5029874;28;20063;-75
2021/06/11 07:19:30;;;;;;;2.90;2.08;;;;;;;;;;5030164;28;20047;-75
2021/06/11 07:22:15;;;;;;;3.70;1.90;;;;;;;;;;5043349;28;20044;-75
2021/06/11 07:25:05;;;;;;;4.15;2.13;;;;;;;;;;5042881;28;20175;-75
2021/06/11 07:27:49;;;;;;;2.20;1.80;;;;;;;;;;5045221;28;20453;-75
2021/06/11 07:30:34;;;;;;;4.25;2.10;;;;;;;;;;5043530;28;20055;-75
2021/06/11 07:33:18;;;;;;;2.58;2.00;;;;;;;;;;5027622;28;20048;-75
2021/06/11 07:36:03;;;;;;;2.35;1.90;;;;;;;;;;5046065;28;20036;-77
2021/06/11 07:38:47;;;;;;;2.45;1.92;;;;;;;;;;5043599;28;20071;-74
2021/06/11 07:41:32;;;;;;;2.60;2.10;;;;;;;;;;5031122;28;20059;-74
2021/06/11 07:44:16;;;;;;;2.08;1.80;;;;;;;;;;5039237;28;20044;-75
2021/06/11 07:47:01;;;;;;;5.00;2.10;;;;;;;;;;5042755;28;20036;-75
2021/06/11 07:49:45;;;;;;;3.30;2.20;;;;;;;;;;5032651;28;20044;-76
2021/06/11 07:52:31;;;;;;;3.83;2.35;;;;;;;;;;5043026;28;20154;-75
2021/06/11 07:55:15;;;;;;;2.88;2.35;;;;;;;;;;5043515;28;20143;-75
2021/06/11 07:58:00;;;;;;;3.03;1.95;;;;;;;;;;5032733;28;20087;-76
2021/06/11 08:00:45;;;;;;;3.47;2.33;;;;;;;;;;5042456;28;20040;-76
2021/06/11 08:03:30;;;;;;;3.13;2.20;;;;;;;;;;5029344;28;20146;-75
2021/06/11 08:06:14;;;;;;;3.13;2.20;;;;;;;;;;5049498;28;20127;-75
2021/06/11 08:08:59;;;;;;;3.10;2.25;;;;;;;;;;5052152;28;20412;-75
2021/06/11 08:11:43;;;;;;;3.72;2.53;;;;;;;;;;5029481;28;20559;-75
2021/06/11 08:14:28;;;;;;;4.70;2.50;;;;;;;;;;5034151;28;20039;-74
2021/06/11 08:17:12;;;;;;;4.93;2.58;;;;;;;;;;5031414;28;20090;-75
2021/06/11 08:19:57;;;;;;;4.00;2.25;;;;;;;;;;5029241;28;20120;-75
2021/06/11 08:22:42;;;;;;;4.70;2.63;;;;;;;;;;5043081;28;20509;-76
2021/06/11 08:25:27;;;;;;;5.50;2.58;;;;;;;;;;5043423;28;20032;-75
2021/06/11 08:28:12;;;;;;;4.53;2.45;;;;;;;;;;5040366;28;20035;-76
2021/06/11 08:30:57;;;;;;;4.80;2.53;;;;;;;;;;5043206;28;20043;-76
2021/06/11 08:33:42;;;;;;;3.67;2.45;;;;;;;;;;5042235;28;20051;-76
2021/06/11 08:36:27;;;;;;;3.92;2.58;;;;;;;;;;5041653;28;20539;-76
2021/06/11 08:39:12;;;;;;;3.85;2.60;;;;;;;;;;5042962;28;20398;-76
2021/06/11 08:41:57;;;;;;;6.57;3.00;;;;;;;;;;5043011;28;20106;-76
2021/06/11 08:44:42;;;;;;;4.25;2.72;;;;;;;;;;5028053;28;20039;-75
2021/06/11 08:47:27;;;;;;;4.03;2.75;;;;;;;;;;5041643;28;20040;-76
2021/06/11 08:50:13;;;;;;;5.25;2.72;;;;;;;;;;5037253;28;20781;-75
2021/06/11 08:52:58;;;;;;;6.22;2.95;;;;;;;;;;5028488;28;20055;-77
2021/06/11 08:55:42;;;;;;;6.15;3.00;;;;;;;;;;5028286;28;20040;-76
2021/06/11 08:58:27;;;;;;;4.43;2.80;;;;;;;;;;5027105;28;20397;-75
2021/06/11 09:01:11;;;;;;;4.75;2.67;;;;;;;;;;5018311;28;20118;-76
2021/06/11 09:03:57;;;;;;;4.80;2.70;;;;;;;;;;5026457;28;20048;-76
2021/06/11 09:06:42;;;;;;;5.30;3.00;;;;;;;;;;5023520;28;20485;-76
2021/06/11 09:09:46;;;;;;;4.18;2.78;;;;;;;;;;5062412;28;20102;-76
2021/06/11 09:12:31;;;;;;;4.25;2.63;;;;;;;;;;5031499;28;20048;-76
2021/06/11 09:15:18;;;;;;;4.97;2.83;;;;;;;;;;5050999;28;20098;-76
2021/06/11 09:18:14;;;;;;;4.45;2.63;;;;;;;;;;5033747;28;20055;-76
2021/06/11 09:20:59;;;;;;;5.13;2.83;;;;;;;;;;5028724;28;20112;-76
2021/06/11 09:24:07;;;;;;;6.53;2.97;;;;;;;;;;5045779;28;20033;-76
2021/06/11 09:27:03;;;;;;;6.78;2.78;;;;;;;;;;5062534;28;20047;-76
2021/06/11 09:29:52;;;;;;;5.20;2.95;;;;;;;;;;5053665;28;20035;-75
2021/06/11 09:32:38;;;;;;;5.68;3.38;;;;;;;;;;5046762;28;20145;-76
2021/06/11 09:35:31;;;;;;;5.03;2.80;;;;;;;;;;5036321;28;20044;-76
2021/06/11 09:38:19;;;;;;;4.78;3.10;;;;;;;;;;5030449;28;20039;-76
2021/06/11 09:41:04;;;;;;;5.30;2.72;;;;;;;;;;5032628;28;20134;-77
2021/06/11 09:43:55;;;;;;;5.85;3.15;;;;;;;;;;5036162;28;20060;-77
2021/06/11 09:46:46;;;;;;;6.30;2.90;;;;;;;;;;5039369;28;20124;-76
2021/06/11 09:49:41;;;;;;;4.40;2.90;;;;;;;;;;5060890;28;20428;-76
2021/06/11 09:52:26;;;;;;;5.30;2.70;;;;;;;;;;5062428;28;20106;-76
2021/06/11 09:55:12;;;;;;;6.18;2.80;;;;;;;;;;5037066;28;20044;-76
2021/06/11 09:58:03;;;;;;;5.72;2.80;;;;;;;;;;5017221;28;20555;-76
2021/06/11 10:00:54;;;;;;;6.35;3.10;;;;;;;;;;5044151;28;20090;-75
2021/06/11 10:03:39;;;;;;;7.28;3.17;;;;;;;;;;5055855;28;20139;-76
2021/06/11 10:06:26;;;;;;;6.75;3.13;;;;;;;;;;5053749;28;20048;-76
2021/06/11 10:09:10;;;;;;;7.88;3.00;;;;;;;;;;5053801;28;20097;-76
2021/06/11 10:11:54;;;;;;;6.35;3.08;;;;;;;;;;5056732;28;20623;-76
2021/06/11 10:14:39;;;;;;;6.53;2.90;;;;;;;;;;5046222;28;20055;-75
2021/06/11 10:17:23;;;;;;;5.25;2.70;;;;;;;;;;5043950;28;20079;-77
2021/06/11 10:20:09;;;;;;;4.63;2.83;;;;;;;;;;5042256;28;20091;-76
2021/06/11 10:22:54;;;;;;;7.53;3.20;;;;;;;;;;5041939;28;20036;-76
2021/06/11 10:25:41;;;;;;;5.72;2.70;;;;;;;;;;5029320;28;20119;-76
2021/06/11 10:28:26;;;;;;;5.70;3.10;;;;;;;;;;5042823;28;20126;-77
2021/06/11 10:31:12;;;;;;;7.05;3.13;;;;;;;;;;5026786;28;20094;-76
2021/06/11 10:34:03;;;;;;;5.18;3.00;;;;;;;;;;5023474;28;20141;-76
2021/06/11 10:36:47;;;;;;;4.47;2.75;;;;;;;;;;5034410;28;20186;-76
2021/06/11 10:39:32;;;;;;;8.20;3.35;;;;;;;;;;5033014;28;20039;-76
2021/06/11 10:42:17;;;;;;;6.47;3.05;;;;;;;;;;5033859;28;20048;-75
2021/06/11 10:45:01;;;;;;;6.85;2.90;;;;;;;;;;5030748;28;20044;-77
2021/06/11 10:47:53;;;;;;;5.97;3.00;;;;;;;;;;5052811;28;20432;-76
2021/06/11 10:50:38;;;;;;;4.60;2.70;;;;;;;;;;5031412;28;20040;-75
2021/06/11 10:53:32;;;;;;;5.57;2.95;;;;;;;;;;5032871;28;20654;-76
2021/06/11 10:56:19;;;;;;;6.32;3.00;;;;;;;;;;5062636;28;20401;-76
2021/06/11 10:59:03;;;;;;;6.60;3.03;;;;;;;;;;5049875;28;20102;-76
2021/06/11 11:01:52;;;;;;;6.65;3.28;;;;;;;;;;5030153;28;20132;-75
2021/06/11 11:04:42;;;;;;;5.13;2.90;;;;;;;;;;5054236;28;20084;-75
2021/06/11 11:07:28;;;;;;;7.53;3.20;;;;;;;;;;5034780;28;20505;-75
2021/06/11 11:10:15;;;;;;;6.50;2.90;;;;;;;;;;5048237;28;20062;-75
2021/06/11 11:13:00;;;;;;;6.63;3.20;;;;;;;;;;5056701;28;20125;-77
2021/06/11 11:15:49;;;;;;;6.05;3.03;;;;;;;;;;5044908;28;20039;-76
2021/06/11 11:18:34;;;;;;;7.03;3.05;;;;;;;;;;5014208;28;20044;-78
2021/06/11 11:21:31;;;;;;;8.45;3.45;;;;;;;;;;5044570;28;20130;-75
2021/06/11 11:24:17;;;;;;;6.78;3.75;;;;;;;;;;5053999;28;20048;-75
2021/06/11 11:27:01;;;;;;;8.45;3.40;;;;;;;;;;5032604;28;20724;-76
2021/06/11 11:29:46;;;;;;;7.20;3.50;;;;;;;;;;5044647;28;20094;-76
2021/06/11 11:32:31;;;;;;;5.32;3.35;;;;;;;;;;5063363;28;20056;-80
2021/06/11 11:35:17;;;;;;;8.48;3.25;;;;;;;;;;5049063;28;20121;-80
2021/06/11 11:38:03;;;;;;;6.28;3.20;;;;;;;;;;5048966;28;20120;-77
2021/06/11 11:40:47;;;;;;;7.25;3.30;;;;;;;;;;5053529;28;20537;-77
2021/06/11 11:43:32;;;;;;;10.82;3.50;;;;;;;;;;5061481;28;20086;-76
2021/06/11 11:46:17;;;;;;;8.52;3.72;;;;;;;;;;5044063;28;20508;-76
2021/06/11 11:49:02;;;;;;;6.93;3.20;;;;;;;;;;5028855;28;20039;-76
2021/06/11 11:51:46;;;;;;;9.30;3.40;;;;;;;;;;5039447;28;20730;-76
2021/06/11 11:54:32;;;;;;;5.65;3.30;;;;;;;;;;5053292;28;20068;-76
2021/06/11 11:57:16;;;;;;;5.20;3.10;;;;;;;;;;5036369;28;20156;-74
2021/06/11 12:00:01;;;;;;;6.65;3.58;;;;;;;;;;5051526;28;20036;-74
2021/06/11 12:02:47;;;;;;;7.05;3.10;;;;;;;;;;5059010;28;20063;-73
2021/06/11 12:05:31;;;;;;;6.22;3.20;;;;;;;;;;5045407;28;20058;-74
2021/06/11 12:08:16;;;;;;;6.93;3.50;;;;;;;;;;5050681;28;20480;-74
2021/06/11 12:11:00;;;;;;;11.02;3.85;;;;;;;;;;5034904;28;20147;-72
2021/06/11 12:13:45;;;;;;;6.15;3.47;;;;;;;;;;5043524;28;20128;-72
2021/06/11 12:16:29;;;;;;;5.88;3.22;;;;;;;;;;5042689;28;20886;-73
2021/06/11 12:19:14;;;;;;;7.40;3.70;;;;;;;;;;5034286;28;20056;-72
2021/06/11 12:21:58;;;;;;;7.88;3.50;;;;;;;;;;5034589;28;20221;-72
2021/06/11 12:24:43;;;;;;;10.30;3.63;;;;;;;;;;5035968;28;20040;-72
2021/06/11 12:27:28;;;;;;;8.05;3.25;;;;;;;;;;5043267;28;20572;-72
2021/06/11 12:30:13;;;;;;;6.78;3.20;;;;;;;;;;5063301;28;20047;-72
2021/06/11 12:32:57;;;;;;;4.38;2.70;;;;;;;;;;5049376;28;20052;-73
2021/06/11 12:35:42;;;;;;;6.72;3.03;;;;;;;;;;5040216;28;20055;-72
2021/06/11 12:38:26;;;;;;;7.25;3.00;;;;;;;;;;5045962;28;20044;-72
2021/06/11 12:41:14;;;;;;;8.52;3.30;;;;;;;;;;5040895;28;20145;-72
2021/06/11 12:47:02;;;;;;;6.32;3.35;;;;;;;;;;5042237;28;20064;-73
2021/06/11 12:49:46;;;;;;;6.55;3.08;;;;;;;;;;5044123;28;20038;-72
2021/06/11 12:52:31;;;;;;;5.88;3.10;;;;;;;;;;5031746;28;20055;-72
2021/06/11 12:55:15;;;;;;;8.13;3.38;;;;;;;;;;5015351;28;20035;-73
2021/06/11 12:58:00;;;;;;;7.22;2.70;;;;;;;;;;5018071;28;20507;-72
2021/06/11 13:00:45;;;;;;;6.35;2.80;;;;;;;;;;5030496;28;20044;-72
2021/06/11 13:03:29;;;;;;;5.68;2.90;;;;;;;;;;5050406;28;20154;-72
2021/06/11 13:06:14;;;;;;;7.70;3.28;;;;;;;;;;5051851;28;20043;-72
2021/06/11 13:08:58;;;;;;;5.93;2.85;;;;;;;;;;5047576;28;20208;-73
2021/06/11 13:11:42;;;;;;;5.95;2.67;;;;;;;;;;5057852;28;20055;-72
2021/06/11 13:14:28;;;;;;;5.70;3.20;;;;;;;;;;5041712;28;20040;-72
2021/06/11 13:17:12;;;;;;;7.82;3.10;;;;;;;;;;5049095;28;20429;-72
2021/06/11 13:19:57;;;;;;;5.15;3.00;;;;;;;;;;5040492;28;20039;-72
2021/06/11 13:22:44;;;;;;;6.63;2.90;;;;;;;;;;5056926;28;20171;-72
2021/06/11 13:25:28;;;;;;;6.28;2.78;;;;;;;;;;5048703;28;20834;-72
2021/06/11 13:28:13;;;;;;;6.60;2.95;;;;;;;;;;5035742;28;20137;-73
2021/06/11 13:30:57;;;;;;;7.00;2.80;;;;;;;;;;5055990;28;20031;-72
2021/06/11 13:33:41;;;;;;;6.47;2.60;;;;;;;;;;5055414;28;20040;-72
2021/06/11 13:36:26;;;;;;;6.82;2.92;;;;;;;;;;5040605;28;20032;-72
2021/06/11 13:39:10;;;;;;;7.07;2.97;;;;;;;;;;5062275;28;20443;-73
2021/06/11 13:41:55;;;;;;;4.68;2.53;;;;;;;;;;5058423;28;20090;-72
2021/06/11 13:44:39;;;;;;;6.70;2.70;;;;;;;;;;5008956;28;20723;-72
2021/06/11 13:47:24;;;;;;;6.00;2.72;;;;;;;;;;5045178;28;20066;-72
2021/06/11 13:50:09;;;;;;;6.57;2.85;;;;;;;;;;5053180;28;20044;-72
2021/06/11 13:52:53;;;;;;;3.95;2.30;;;;;;;;;;5044220;28;20417;-72
2021/06/11 13:55:38;;;;;;;6.93;2.60;;;;;;;;;;5043581;28;20048;-75
2021/06/11 13:58:23;;;;;;;7.43;2.83;;;;;;;;;;5066381;28;20427;-72
2021/06/11 14:01:07;;;;;;;6.25;2.50;;;;;;;;;;5065620;28;20837;-73
2021/06/11 14:03:52;;;;;;;7.03;2.90;;;;;;;;;;5048774;28;20043;-72
2021/06/11 14:06:37;;;;;;;4.90;2.35;;;;;;;;;;5036763;28;20035;-72
2021/06/11 14:09:21;;;;;;;5.90;2.55;;;;;;;;;;5059652;28;20471;-73
2021/06/11 14:12:06;;;;;;;5.03;2.47;;;;;;;;;;5037075;28;20523;-72
2021/06/11 14:14:51;;;;;;;6.40;2.40;;;;;;;;;;5062372;28;20040;-72
2021/06/11 14:17:36;;;;;;;5.35;2.40;;;;;;;;;;5048981;28;20048;-73
2021/06/11 14:20:20;;;;;;;4.82;2.20;;;;;;;;;;5042098;28;20043;-72
2021/06/11 14:23:05;;;;;;;3.72;2.05;;;;;;;;;;5036645;28;20040;-72
2021/06/11 14:25:51;;;;;;;4.00;2.03;;;;;;;;;;5049888;28;20151;-72
2021/06/11 14:28:36;;;;;;;4.90;2.30;;;;;;;;;;5067785;28;20082;-73
2021/06/11 14:31:21;;;;;;;5.00;2.35;;;;;;;;;;5042480;28;20052;-72
2021/06/11 14:34:05;;;;;;;5.22;1.90;;;;;;;;;;5031643;28;20086;-72
2021/06/11 14:36:50;;;;;;;3.60;2.05;;;;;;;;;;5057851;28;20058;-72
2021/06/11 14:39:35;;;;;;;3.58;1.67;;;;;;;;;;5067800;28;20602;-73
2021/06/11 14:42:19;;;;;;;5.28;2.17;;;;;;;;;;5064219;28;20106;-73
2021/06/11 14:45:05;;;;;;;4.10;1.90;;;;;;;;;;5051518;28;20051;-72
2021/06/11 14:47:51;;;;;;;3.63;1.98;;;;;;;;;;5033286;28;20341;-72
2021/06/11 14:50:35;;;;;;;2.97;1.75;;;;;;;;;;5030248;28;20040;-71
2021/06/11 14:53:54;;;;;;;5.03;2.33;;;;;;;;;;5033364;28;20436;-72
2021/06/11 14:59:20;;;;;;;4.55;1.90;;;;;;;;;;5039845;28;20040;-72
2021/06/11 15:02:04;;;;;;;4.10;2.10;;;;;;;;;;5029576;28;20060;-72
2021/06/11 15:04:49;;;;;;;5.28;1.70;;;;;;;;;;5052179;28;20119;-72
2021/06/11 15:07:33;;;;;;;4.25;1.95;;;;;;;;;;5054571;28;20397;-72
2021/06/11 15:10:18;;;;;;;3.22;1.90;;;;;;;;;;5047494;28;20115;-72
2021/06/11 15:13:18;;;;;;;3.65;1.80;;;;;;;;;;5049524;28;20628;-72
2021/06/11 15:16:03;;;;;;;4.13;2.10;;;;;;;;;;5053581;28;20039;-73
2021/06/11 15:18:48;;;;;;;4.55;2.00;;;;;;;;;;5046954;28;20036;-72
2021/06/11 15:21:33;;;;;;;3.70;1.70;;;;;;;;;;5048499;28;20043;-72
2021/06/11 15:24:18;;;;;;;4.30;1.90;;;;;;;;;;5054753;28;20047;-73
2021/06/11 15:27:03;;;;;;;4.63;1.88;;;;;;;;;;5046719;28;20047;-72
2021/06/11 15:29:48;;;;;;;4.45;2.03;;;;;;;;;;5044469;28;20048;-72
2021/06/11 15:32:32;;;;;;;2.65;1.70;;;;;;;;;;5042407;28;20097;-73
2021/06/11 15:35:18;;;;;;;3.17;1.95;;;;;;;;;;5048078;28;20400;-73
2021/06/11 15:38:06;;;;;;;2.72;1.80;;;;;;;;;;5056944;28;20047;-72
2021/06/11 15:40:51;;;;;;;3.63;1.90;;;;;;;;;;5044286;28;20429;-72
2021/06/11 15:43:36;;;;;;;2.70;1.50;;;;;;;;;;5058952;28;20112;-72
2021/06/11 15:46:21;;;;;;;3.15;1.85;;;;;;;;;;5057648;28;20036;-73
2021/06/11 15:49:06;;;;;;;4.03;1.65;;;;;;;;;;5059125;28;20131;-72
2021/06/11 15:51:51;;;;;;;3.42;2.00;;;;;;;;;;5043199;28;20060;-72
2021/06/11 15:54:35;;;;;;;3.15;1.83;;;;;;;;;;5027570;28;20044;-72
2021/06/11 15:57:20;;;;;;;3.42;1.70;;;;;;;;;;5054216;28;20047;-72
2021/06/11 16:00:06;;;;;;;3.03;1.65;;;;;;;;;;5044209;28;20132;-72
2021/06/11 16:02:51;;;;;;;3.50;1.90;;;;;;;;;;5042353;28;20067;-72
2021/06/11 16:05:35;;;;;;;5.47;1.92;;;;;;;;;;5067945;28;20680;-72
2021/06/11 16:08:20;;;;;;;3.88;1.95;;;;;;;;;;5050712;28;20059;-72
2021/06/11 16:11:04;;;;;;;3.13;1.67;;;;;;;;;;5028581;28;20060;-72
2021/06/11 16:13:49;;;;;;;3.92;1.70;;;;;;;;;;5048613;28;20036;-72
2021/06/11 16:16:34;;;;;;;2.95;1.67;;;;;;;;;;5042639;28;20089;-72
2021/06/11 16:19:19;;;;;;;4.13;1.70;;;;;;;;;;5058199;28;20092;-72
2021/06/11 16:22:03;;;;;;;3.08;1.80;;;;;;;;;;5037768;28;22756;-72
2021/06/11 16:24:48;;;;;;;2.53;1.58;;;;;;;;;;5034672;28;20503;-72
2021/06/11 16:27:33;;;;;;;4.00;1.88;;;;;;;;;;5055074;28;20039;-72
2021/06/11 16:30:18;;;;;;;4.55;1.70;;;;;;;;;;5024363;28;20124;-72
2021/06/11 16:33:03;;;;;;;3.55;1.70;;;;;;;;;;5032340;28;20125;-72
2021/06/11 16:35:47;;;;;;;2.30;1.65;;;;;;;;;;5027967;28;20082;-73
2021/06/11 16:38:32;;;;;;;4.32;1.80;;;;;;;;;;5040100;28;20039;-77
2021/06/11 16:41:17;;;;;;;4.18;1.88;;;;;;;;;;5042362;28;20063;-72